SBCP/CAW METAR and TAF weather

Enter ICAO airport designator
Station Type Date Time Source
SBCP METAR 2023/02/06 20:00 UTC NOAA

SBCP 062000Z 10002KT 9999 FEW020 BKN080 27/19 Q1010 RETS


Station Type Date Time Source
SBCP Decoded METAR 2023/02/06 20:00 UTC NOAA

Campos, Brazil (SBCP) 21-45S 041-20W 11M
Feb 06, 2023 - 03:00 PM EST / 2023.02.06 2000 UTC
Wind: from the E (100 degrees) at 2 MPH (2 KT):0
Visibility: greater than 7 mile(s):0
Sky conditions: mostly cloudy
Temperature: 80 F (27 C)
Dew Point: 66 F (19 C)
Relative Humidity: 61%
Pressure (altimeter): 29.83 in. Hg (1010 hPa)
ob: SBCP 062000Z 10002KT 9999 FEW020 BKN080 27/19 Q1010 RETS
cycle: 20

Station Type Date Time Source
SBCP TAF 2023/02/06 18:45 UTC NOAA

TAF SBCP 061445Z 0618/0706 01007KT 9999 SCT020 TX30/0619Z TN24/0705Z
TEMPO 0618/0624 6000 TS SCT020 FEW030CB
RMK PGX

Example: see airport list